sensor_id;sensor_type;location;lat;lon;timestamp;pressure;altitude;pressure_sealevel;temperature;humidity
10988;BME280;5547;42.672;23.230;2023-02-14T00:00:23;94744.03;;;-2.43;92.18
10988;BME280;5547;42.672;23.230;2023-02-14T00:03:24;94741.88;;;-2.08;91.00
10988;BME280;5547;42.672;23.230;2023-02-14T00:06:24;94754.50;;;-2.02;90.54
10988;BME280;5547;42.672;23.230;2023-02-14T00:09:24;94754.31;;;-2.19;91.57
10988;BME280;5547;42.672;23.230;2023-02-14T00:12:25;94757.72;;;-1.91;90.45
10988;BME280;5547;42.672;23.230;2023-02-14T00:15:26;94732.91;;;-1.88;89.51
10988;BME280;5547;42.672;23.230;2023-02-14T00:18:26;94757.31;;;-1.43;88.47
10988;BME280;5547;42.672;23.230;2023-02-14T00:21:47;94722.44;;;-1.47;87.89
10988;BME280;5547;42.672;23.230;2023-02-14T00:24:48;94760.38;;;-0.91;86.25
10988;BME280;5547;42.672;23.230;2023-02-14T00:27:48;94760.78;;;-0.97;86.78
10988;BME280;5547;42.672;23.230;2023-02-14T00:30:49;94755.88;;;-0.76;85.65
10988;BME280;5547;42.672;23.230;2023-02-14T00:33:49;94755.16;;;-0.68;84.86
10988;BME280;5547;42.672;23.230;2023-02-14T00:36:50;94751.44;;;-0.76;86.03
10988;BME280;5547;42.672;23.230;2023-02-14T00:39:50;94756.25;;;-0.69;85.30
10988;BME280;5547;42.672;23.230;2023-02-14T00:42:51;94740.44;;;-0.87;86.14
10988;BME280;5547;42.672;23.230;2023-02-14T00:45:51;94724.63;;;-0.81;85.18
10988;BME280;5547;42.672;23.230;2023-02-14T00:48:51;94739.31;;;-0.72;84.30
10988;BME280;5547;42.672;23.230;2023-02-14T00:51:52;94736.19;;;-0.60;83.56
10988;BME280;5547;42.672;23.230;2023-02-14T00:54:52;94738.78;;;-0.60;85.14
10988;BME280;5547;42.672;23.230;2023-02-14T00:57:53;94745.53;;;-0.59;84.60
10988;BME280;5547;42.672;23.230;2023-02-14T01:00:53;94733.56;;;-0.60;84.15
10988;BME280;5547;42.672;23.230;2023-02-14T01:03:54;94714.50;;;-0.83;85.57
10988;BME280;5547;42.672;23.230;2023-02-14T01:06:54;94736.28;;;-0.65;85.04
10988;BME280;5547;42.672;23.230;2023-02-14T01:09:54;94689.22;;;-0.96;84.28
10988;BME280;5547;42.672;23.230;2023-02-14T01:12:55;94726.78;;;-0.61;84.94
10988;BME280;5547;42.672;23.230;2023-02-14T01:15:55;94718.22;;;-0.53;84.27
10988;BME280;5547;42.672;23.230;2023-02-14T01:18:58;94721.75;;;-0.57;84.42
10988;BME280;5547;42.672;23.230;2023-02-14T01:21:59;94729.75;;;-0.54;83.91
10988;BME280;5547;42.672;23.230;2023-02-14T01:24:59;94693.78;;;-0.79;84.66
10988;BME280;5547;42.672;23.230;2023-02-14T01:28:00;94644.69;;;-0.91;82.94
10988;BME280;5547;42.672;23.230;2023-02-14T01:31:12;94709.16;;;-0.55;83.50
10988;BME280;5547;42.672;23.230;2023-02-14T01:34:13;94673.47;;;-0.82;84.31
10988;BME280;5547;42.672;23.230;2023-02-14T01:37:13;94711.84;;;-0.69;84.27
10988;BME280;5547;42.672;23.230;2023-02-14T01:40:14;94671.44;;;-0.86;84.97
10988;BME280;5547;42.672;23.230;2023-02-14T01:43:15;94699.13;;;-0.62;84.21
10988;BME280;5547;42.672;23.230;2023-02-14T01:46:15;94674.88;;;-0.76;83.86
10988;BME280;5547;42.672;23.230;2023-02-14T01:49:24;94576.78;;;-1.45;84.15
10988;BME280;5547;42.672;23.230;2023-02-14T01:52:46;94570.47;;;-1.44;84.42
10988;BME280;5547;42.672;23.230;2023-02-14T01:55:54;94668.59;;;-0.75;84.31
10988;BME280;5547;42.672;23.230;2023-02-14T01:58:59;94629.91;;;-0.96;84.40
10988;BME280;5547;42.672;23.230;2023-02-14T02:02:02;94681.31;;;-0.60;84.41
10988;BME280;5547;42.672;23.230;2023-02-14T02:05:02;94690.66;;;-0.59;82.76
10988;BME280;5547;42.672;23.230;2023-02-14T02:08:03;94637.75;;;-0.96;83.08
10988;BME280;5547;42.672;23.230;2023-02-14T02:11:03;94659.19;;;-0.76;84.69
10988;BME280;5547;42.672;23.230;2023-02-14T02:14:13;94638.69;;;-0.92;83.63
10988;BME280;5547;42.672;23.230;2023-02-14T02:27:37;94668.94;;;-0.68;83.54
10988;BME280;5547;42.672;23.230;2023-02-14T02:30:55;94668.41;;;-0.79;84.00
10988;BME280;5547;42.672;23.230;2023-02-14T02:44:49;94637.88;;;-1.23;86.29
10988;BME280;5547;42.672;23.230;2023-02-14T02:50:37;94525.59;;;-2.14;86.60
10988;BME280;5547;42.672;23.230;2023-02-14T02:54:19;94645.78;;;-1.51;87.42
10988;BME280;5547;42.672;23.230;2023-02-14T02:57:26;94550.13;;;-2.01;86.55
10988;BME280;5547;42.672;23.230;2023-02-14T03:00:29;94535.00;;;-2.26;87.18
10988;BME280;5547;42.672;23.230;2023-02-14T03:03:31;94494.97;;;-2.30;86.96
10988;BME280;5547;42.672;23.230;2023-02-14T03:06:53;94548.59;;;-2.16;87.14
10988;BME280;5547;42.672;23.230;2023-02-14T03:09:59;94571.91;;;-1.97;87.32
10988;BME280;5547;42.672;23.230;2023-02-14T03:13:22;94650.13;;;-1.46;88.01
10988;BME280;5547;42.672;23.230;2023-02-14T03:16:35;94639.63;;;-1.55;87.26
10988;BME280;5547;42.672;23.230;2023-02-14T03:23:24;94395.88;;;-3.26;87.82
10988;BME280;5547;42.672;23.230;2023-02-14T03:33:03;94595.75;;;-1.53;86.69
10988;BME280;5547;42.672;23.230;2023-02-14T03:36:19;94602.38;;;-1.70;87.58
10988;BME280;5547;42.672;23.230;2023-02-14T03:42:28;94618.56;;;-1.95;88.87
10988;BME280;5547;42.672;23.230;2023-02-14T03:45:36;94616.06;;;-2.00;89.71
10988;BME280;5547;42.672;23.230;2023-02-14T03:48:39;94513.03;;;-2.62;89.03
10988;BME280;5547;42.672;23.230;2023-02-14T03:51:44;94577.94;;;-2.10;88.47
10988;BME280;5547;42.672;23.230;2023-02-14T03:54:48;94621.66;;;-1.93;89.13
10988;BME280;5547;42.672;23.230;2023-02-14T03:58:02;94608.75;;;-2.12;90.23
10988;BME280;5547;42.672;23.230;2023-02-14T04:01:32;94517.97;;;-2.60;90.51
10988;BME280;5547;42.672;23.230;2023-02-14T04:04:31;94585.94;;;-2.06;90.12
10988;BME280;5547;42.672;23.230;2023-02-14T04:07:48;94590.56;;;-2.03;89.86
10988;BME280;5547;42.672;23.230;2023-02-14T04:10:50;94532.06;;;-2.11;88.38
10988;BME280;5547;42.672;23.230;2023-02-14T04:13:51;94540.63;;;-1.97;88.29
10988;BME280;5547;42.672;23.230;2023-02-14T04:16:52;94591.88;;;-1.56;87.22
10988;BME280;5547;42.672;23.230;2023-02-14T04:20:11;94591.88;;;-1.56;86.75
10988;BME280;5547;42.672;23.230;2023-02-14T04:23:11;94589.88;;;-1.59;86.91
10988;BME280;5547;42.672;23.230;2023-02-14T04:26:12;94574.09;;;-1.54;86.25
10988;BME280;5547;42.672;23.230;2023-02-14T04:29:12;94587.84;;;-1.39;85.55
10988;BME280;5547;42.672;23.230;2023-02-14T04:32:15;94596.28;;;-1.42;85.54
10988;BME280;5547;42.672;23.230;2023-02-14T04:35:16;94597.78;;;-1.50;86.06
10988;BME280;5547;42.672;23.230;2023-02-14T04:38:16;94595.41;;;-1.38;85.31
10988;BME280;5547;42.672;23.230;2023-02-14T04:41:17;94512.69;;;-1.82;84.30
10988;BME280;5547;42.672;23.230;2023-02-14T04:44:17;94519.72;;;-1.60;83.41
10988;BME280;5547;42.672;23.230;2023-02-14T04:47:17;94551.25;;;-1.48;84.29
10988;BME280;5547;42.672;23.230;2023-02-14T04:50:18;94562.72;;;-1.35;84.24
10988;BME280;5547;42.672;23.230;2023-02-14T04:53:19;94544.69;;;-1.68;84.93
10988;BME280;5547;42.672;23.230;2023-02-14T04:56:20;94517.91;;;-1.82;85.22
10988;BME280;5547;42.672;23.230;2023-02-14T04:59:20;94556.69;;;-1.81;85.82
10988;BME280;5547;42.672;23.230;2023-02-14T05:02:22;94560.81;;;-2.02;86.99
10988;BME280;5547;42.672;23.230;2023-02-14T05:05:22;94559.47;;;-2.00;87.21
10988;BME280;5547;42.672;23.230;2023-02-14T05:08:22;94512.25;;;-2.35;87.97
10988;BME280;5547;42.672;23.230;2023-02-14T05:11:23;94570.63;;;-1.85;87.12
10988;BME280;5547;42.672;23.230;2023-02-14T05:14:23;94547.81;;;-1.80;86.73
10988;BME280;5547;42.672;23.230;2023-02-14T05:17:24;94562.06;;;-1.63;86.76
10988;BME280;5547;42.672;23.230;2023-02-14T05:20:24;94525.81;;;-1.87;85.89
10988;BME280;5547;42.672;23.230;2023-02-14T05:23:25;94547.78;;;-1.66;85.19
10988;BME280;5547;42.672;23.230;2023-02-14T05:26:25;94539.06;;;-1.61;85.14
10988;BME280;5547;42.672;23.230;2023-02-14T05:29:26;94556.38;;;-1.43;84.58
10988;BME280;5547;42.672;23.230;2023-02-14T05:32:26;94554.53;;;-1.42;84.74
10988;BME280;5547;42.672;23.230;2023-02-14T05:35:27;94504.13;;;-1.74;84.58
10988;BME280;5547;42.672;23.230;2023-02-14T05:38:28;94568.47;;;-1.24;83.83
10988;BME280;5547;42.672;23.230;2023-02-14T05:41:29;94564.34;;;-1.17;84.30
10988;BME280;5547;42.672;23.230;2023-02-14T05:44:30;94563.25;;;-1.24;84.00
10988;BME280;5547;42.672;23.230;2023-02-14T05:47:30;94526.25;;;-1.49;84.20
10988;BME280;5547;42.672;23.230;2023-02-14T05:50:30;94517.47;;;-1.53;83.70
10988;BME280;5547;42.672;23.230;2023-02-14T05:53:31;94555.28;;;-1.19;84.52
10988;BME280;5547;42.672;23.230;2023-02-14T05:56:32;94450.84;;;-1.82;83.78
10988;BME280;5547;42.672;23.230;2023-02-14T05:59:32;94561.38;;;-1.01;83.25
10988;BME280;5547;42.672;23.230;2023-02-14T06:02:33;94433.19;;;-1.85;83.42
10988;BME280;5547;42.672;23.230;2023-02-14T06:05:33;94560.81;;;-0.90;82.34
10988;BME280;5547;42.672;23.230;2023-02-14T06:08:33;94558.25;;;-0.72;81.58
10988;BME280;5547;42.672;23.230;2023-02-14T06:11:34;94507.72;;;-1.08;81.58
10988;BME280;5547;42.672;23.230;2023-02-14T06:14:34;94462.59;;;-1.39;81.72
10988;BME280;5547;42.672;23.230;2023-02-14T06:17:35;94576.41;;;-0.67;82.18
10988;BME280;5547;42.672;23.230;2023-02-14T06:20:35;94576.31;;;-0.62;82.08
10988;BME280;5547;42.672;23.230;2023-02-14T06:23:36;94526.59;;;-0.79;81.17
10988;BME280;5547;42.672;23.230;2023-02-14T06:26:36;94572.09;;;-0.32;80.32
10988;BME280;5547;42.672;23.230;2023-02-14T06:29:37;94581.31;;;-0.34;80.45
10988;BME280;5547;42.672;23.230;2023-02-14T06:32:37;94579.03;;;-0.27;80.29
10988;BME280;5547;42.672;23.230;2023-02-14T06:35:38;94542.69;;;-0.46;80.87
10988;BME280;5547;42.672;23.230;2023-02-14T06:38:38;94492.97;;;-0.64;80.50
10988;BME280;5547;42.672;23.230;2023-02-14T06:41:38;94547.66;;;-0.27;79.93
10988;BME280;5547;42.672;23.230;2023-02-14T06:44:39;94579.69;;;0.05;79.85
10988;BME280;5547;42.672;23.230;2023-02-14T06:47:39;94568.03;;;0.19;79.14
10988;BME280;5547;42.672;23.230;2023-02-14T06:50:40;94556.91;;;0.14;78.46
10988;BME280;5547;42.672;23.230;2023-02-14T06:53:40;94528.75;;;0.02;80.09
10988;BME280;5547;42.672;23.230;2023-02-14T06:56:40;94565.88;;;0.30;78.93
10988;BME280;5547;42.672;23.230;2023-02-14T06:59:41;94565.41;;;0.46;79.22
10988;BME280;5547;42.672;23.230;2023-02-14T07:02:41;94544.19;;;0.21;79.10
10988;BME280;5547;42.672;23.230;2023-02-14T07:05:42;94541.69;;;0.16;79.62
10988;BME280;5547;42.672;23.230;2023-02-14T07:08:44;94554.63;;;0.30;79.62
10988;BME280;5547;42.672;23.230;2023-02-14T07:11:44;94428.75;;;-0.56;79.46
10988;BME280;5547;42.672;23.230;2023-02-14T07:14:45;94551.25;;;0.29;79.98
10988;BME280;5547;42.672;23.230;2023-02-14T07:17:45;94526.91;;;0.11;79.61
10988;BME280;5547;42.672;23.230;2023-02-14T07:20:45;94540.47;;;0.22;79.99
10988;BME280;5547;42.672;23.230;2023-02-14T07:23:46;94512.75;;;-0.05;80.25
10988;BME280;5547;42.672;23.230;2023-02-14T07:26:49;94557.09;;;0.26;81.44
10988;BME280;5547;42.672;23.230;2023-02-14T07:29:49;94543.09;;;0.31;80.91
10988;BME280;5547;42.672;23.230;2023-02-14T07:32:50;94561.25;;;0.36;80.91
10988;BME280;5547;42.672;23.230;2023-02-14T07:35:50;94556.00;;;0.27;81.93
10988;BME280;5547;42.672;23.230;2023-02-14T07:38:51;94562.31;;;0.44;81.93
10988;BME280;5547;42.672;23.230;2023-02-14T07:41:51;94561.09;;;0.41;81.16
10988;BME280;5547;42.672;23.230;2023-02-14T07:44:52;94558.19;;;0.51;81.02
10988;BME280;5547;42.672;23.230;2023-02-14T07:47:53;94557.88;;;0.35;81.20
10988;BME280;5547;42.672;23.230;2023-02-14T07:50:54;94524.31;;;0.03;81.87
10988;BME280;5547;42.672;23.230;2023-02-14T07:53:57;94563.41;;;0.43;81.97
10988;BME280;5547;42.672;23.230;2023-02-14T07:56:58;94530.47;;;0.24;81.86
10988;BME280;5547;42.672;23.230;2023-02-14T07:59:58;94568.47;;;0.48;81.51
10988;BME280;5547;42.672;23.230;2023-02-14T08:02:59;94575.56;;;0.47;81.92
10988;BME280;5547;42.672;23.230;2023-02-14T08:05:59;94576.66;;;0.37;82.65
10988;BME280;5547;42.672;23.230;2023-02-14T08:09:00;94575.25;;;0.31;82.53
10988;BME280;5547;42.672;23.230;2023-02-14T08:12:00;94567.09;;;0.24;82.99
10988;BME280;5547;42.672;23.230;2023-02-14T08:15:19;94526.59;;;0.04;82.72
10988;BME280;5547;42.672;23.230;2023-02-14T08:18:39;94583.72;;;0.46;82.25
10988;BME280;5547;42.672;23.230;2023-02-14T08:21:40;94587.41;;;0.36;83.06
10988;BME280;5547;42.672;23.230;2023-02-14T08:24:40;94595.13;;;0.50;83.76
10988;BME280;5547;42.672;23.230;2023-02-14T08:27:41;94565.69;;;0.18;85.34
10988;BME280;5547;42.672;23.230;2023-02-14T08:30:43;94567.72;;;0.21;85.14
10988;BME280;5547;42.672;23.230;2023-02-14T08:33:43;94590.19;;;0.39;85.64
10988;BME280;5547;42.672;23.230;2023-02-14T08:36:44;94551.50;;;-0.07;86.55
10988;BME280;5547;42.672;23.230;2023-02-14T08:39:45;94584.78;;;0.18;86.87
10988;BME280;5547;42.672;23.230;2023-02-14T08:42:45;94586.47;;;0.23;87.00
10988;BME280;5547;42.672;23.230;2023-02-14T08:45:46;94594.47;;;0.18;87.26
10988;BME280;5547;42.672;23.230;2023-02-14T08:48:47;94592.94;;;0.17;87.90
10988;BME280;5547;42.672;23.230;2023-02-14T08:51:49;94563.22;;;-0.13;88.60
10988;BME280;5547;42.672;23.230;2023-02-14T08:54:49;94435.72;;;-1.00;89.12
10988;BME280;5547;42.672;23.230;2023-02-14T08:57:50;94608.00;;;-0.06;90.58
10988;BME280;5547;42.672;23.230;2023-02-14T09:00:50;94588.88;;;-0.24;91.23
10988;BME280;5547;42.672;23.230;2023-02-14T09:03:51;94549.75;;;-0.47;91.34
10988;BME280;5547;42.672;23.230;2023-02-14T09:06:51;94612.13;;;-0.14;91.84
10988;BME280;5547;42.672;23.230;2023-02-14T09:09:52;94593.69;;;-0.09;91.65
10988;BME280;5547;42.672;23.230;2023-02-14T09:12:53;94532.81;;;-0.49;91.45
10988;BME280;5547;42.672;23.230;2023-02-14T09:15:53;94581.50;;;-0.22;91.48
10988;BME280;5547;42.672;23.230;2023-02-14T09:18:54;94544.56;;;-0.29;91.22
10988;BME280;5547;42.672;23.230;2023-02-14T09:21:55;94572.44;;;-0.07;90.95
10988;BME280;5547;42.672;23.230;2023-02-14T09:24:56;94538.44;;;-0.07;90.73
10988;BME280;5547;42.672;23.230;2023-02-14T09:27:56;94553.09;;;0.03;90.08
10988;BME280;5547;42.672;23.230;2023-02-14T09:30:57;94576.16;;;0.18;89.35
10988;BME280;5547;42.672;23.230;2023-02-14T09:33:58;94568.94;;;0.06;88.18
10988;BME280;5547;42.672;23.230;2023-02-14T09:36:58;94533.22;;;0.02;87.47
10988;BME280;5547;42.672;23.230;2023-02-14T09:40:18;94578.97;;;0.30;87.20
10988;BME280;5547;42.672;23.230;2023-02-14T09:43:29;94578.63;;;0.32;86.81
10988;BME280;5547;42.672;23.230;2023-02-14T09:46:40;94529.09;;;0.01;86.89
10988;BME280;5547;42.672;23.230;2023-02-14T09:49:44;94572.31;;;0.41;86.91
10988;BME280;5547;42.672;23.230;2023-02-14T09:52:49;94564.78;;;0.40;86.53
10988;BME280;5547;42.672;23.230;2023-02-14T10:05:57;94565.56;;;0.49;83.63
10988;BME280;5547;42.672;23.230;2023-02-14T10:09:50;94569.88;;;0.54;83.30
10988;BME280;5547;42.672;23.230;2023-02-14T10:12:41;94553.25;;;0.50;83.77
10988;BME280;5547;42.672;23.230;2023-02-14T10:15:48;94523.69;;;0.40;82.86
10988;BME280;5547;42.672;23.230;2023-02-14T10:19:06;94516.16;;;0.30;82.60
10988;BME280;5547;42.672;23.230;2023-02-14T10:22:14;94507.09;;;0.19;81.96
10988;BME280;5547;42.672;23.230;2023-02-14T10:25:22;94506.44;;;0.13;82.71
10988;BME280;5547;42.672;23.230;2023-02-14T10:28:30;94512.59;;;0.44;82.50
10988;BME280;5547;42.672;23.230;2023-02-14T10:31:39;94518.16;;;0.33;82.36
10988;BME280;5547;42.672;23.230;2023-02-14T10:34:47;94542.47;;;0.43;82.40
10988;BME280;5547;42.672;23.230;2023-02-14T10:54:17;94556.00;;;0.18;83.61
10988;BME280;5547;42.672;23.230;2023-02-14T10:57:34;94547.22;;;0.23;83.17
10988;BME280;5547;42.672;23.230;2023-02-14T11:00:38;94519.69;;;0.17;82.76
10988;BME280;5547;42.672;23.230;2023-02-14T11:03:50;94410.78;;;-0.57;82.41
10988;BME280;5547;42.672;23.230;2023-02-14T11:06:52;94511.38;;;0.15;82.11
10988;BME280;5547;42.672;23.230;2023-02-14T11:09:52;94538.75;;;0.44;82.05
10988;BME280;5547;42.672;23.230;2023-02-14T11:12:53;94528.91;;;0.40;81.75
10988;BME280;5547;42.672;23.230;2023-02-14T11:15:57;94525.84;;;0.38;81.13
10988;BME280;5547;42.672;23.230;2023-02-14T11:22:27;94534.31;;;0.44;81.08
10988;BME280;5547;42.672;23.230;2023-02-14T11:25:30;94531.53;;;0.40;81.49
10988;BME280;5547;42.672;23.230;2023-02-14T11:28:31;94510.47;;;0.28;81.27
10988;BME280;5547;42.672;23.230;2023-02-14T11:31:34;94500.75;;;0.20;81.45
10988;BME280;5547;42.672;23.230;2023-02-14T11:34:40;94466.16;;;0.14;80.98
10988;BME280;5547;42.672;23.230;2023-02-14T11:37:51;94447.66;;;0.02;80.32
10988;BME280;5547;42.672;23.230;2023-02-14T11:40:54;94511.97;;;0.47;80.08
10988;BME280;5547;42.672;23.230;2023-02-14T11:44:13;94468.31;;;0.21;79.30
10988;BME280;5547;42.672;23.230;2023-02-14T11:47:29;94447.66;;;0.28;79.10
10988;BME280;5547;42.672;23.230;2023-02-14T11:50:30;94477.31;;;0.58;78.34
10988;BME280;5547;42.672;23.230;2023-02-14T11:58:02;94500.38;;;0.74;77.88
10988;BME280;5547;42.672;23.230;2023-02-14T12:01:05;94489.28;;;0.77;77.07
10988;BME280;5547;42.672;23.230;2023-02-14T12:04:14;94444.03;;;0.59;76.58
10988;BME280;5547;42.672;23.230;2023-02-14T12:10:28;94491.09;;;0.85;77.26
10988;BME280;5547;42.672;23.230;2023-02-14T12:13:29;94483.28;;;0.76;78.05
10988;BME280;5547;42.672;23.230;2023-02-14T12:16:39;94456.19;;;0.72;77.19
10988;BME280;5547;42.672;23.230;2023-02-14T12:19:52;94431.44;;;0.44;77.71
10988;BME280;5547;42.672;23.230;2023-02-14T12:23:00;94442.59;;;0.79;77.25
10988;BME280;5547;42.672;23.230;2023-02-14T12:32:28;94447.34;;;0.86;77.55
10988;BME280;5547;42.672;23.230;2023-02-14T12:42:47;94471.03;;;0.98;78.95
10988;BME280;5547;42.672;23.230;2023-02-14T12:56:25;94449.16;;;0.94;78.56
10988;BME280;5547;42.672;23.230;2023-02-14T13:02:51;94452.69;;;0.98;79.47
10988;BME280;5547;42.672;23.230;2023-02-14T13:09:01;94444.06;;;0.97;79.11
10988;BME280;5547;42.672;23.230;2023-02-14T13:21:33;94412.84;;;0.83;79.54
10988;BME280;5547;42.672;23.230;2023-02-14T13:24:41;94444.19;;;1.01;79.44
10988;BME280;5547;42.672;23.230;2023-02-14T13:27:42;94429.91;;;0.90;80.64
10988;BME280;5547;42.672;23.230;2023-02-14T13:30:43;94442.22;;;0.98;80.28
10988;BME280;5547;42.672;23.230;2023-02-14T13:33:51;94370.00;;;0.50;81.00
10988;BME280;5547;42.672;23.230;2023-02-14T13:36:56;94444.56;;;0.91;80.91
10988;BME280;5547;42.672;23.230;2023-02-14T13:40:08;94408.94;;;0.90;81.12
10988;BME280;5547;42.672;23.230;2023-02-14T13:46:46;94394.38;;;0.80;80.95
10988;BME280;5547;42.672;23.230;2023-02-14T13:49:52;94423.34;;;0.83;80.66
10988;BME280;5547;42.672;23.230;2023-02-14T13:52:54;94375.53;;;0.57;80.97
10988;BME280;5547;42.672;23.230;2023-02-14T13:55:55;94417.75;;;0.85;80.25
10988;BME280;5547;42.672;23.230;2023-02-14T13:58:57;94426.03;;;0.96;80.74
10988;BME280;5547;42.672;23.230;2023-02-14T14:08:44;94419.19;;;0.74;81.86
10988;BME280;5547;42.672;23.230;2023-02-14T14:11:49;94438.41;;;0.87;80.91
10988;BME280;5547;42.672;23.230;2023-02-14T14:21:32;94448.94;;;0.69;81.47
10988;BME280;5547;42.672;23.230;2023-02-14T14:24:36;94424.63;;;0.60;82.37
10988;BME280;5547;42.672;23.230;2023-02-14T14:27:43;94435.22;;;0.72;81.69
10988;BME280;5547;42.672;23.230;2023-02-14T14:30:45;94433.69;;;0.71;81.75
10988;BME280;5547;42.672;23.230;2023-02-14T14:33:52;94432.63;;;0.63;82.02
10988;BME280;5547;42.672;23.230;2023-02-14T14:37:02;94430.78;;;0.64;82.66
10988;BME280;5547;42.672;23.230;2023-02-14T14:40:06;94409.38;;;0.62;83.02
10988;BME280;5547;42.672;23.230;2023-02-14T14:43:28;94404.13;;;0.62;83.14
10988;BME280;5547;42.672;23.230;2023-02-14T14:46:29;94404.94;;;0.54;83.46
10988;BME280;5547;42.672;23.230;2023-02-14T14:49:30;94412.81;;;0.54;83.12
10988;BME280;5547;42.672;23.230;2023-02-14T14:52:37;94398.06;;;0.40;83.17
10988;BME280;5547;42.672;23.230;2023-02-14T14:55:44;94412.16;;;0.57;83.33
10988;BME280;5547;42.672;23.230;2023-02-14T14:58:51;94381.63;;;0.23;82.89
10988;BME280;5547;42.672;23.230;2023-02-14T15:01:51;94377.78;;;0.29;83.08
10988;BME280;5547;42.672;23.230;2023-02-14T15:04:53;94397.47;;;0.35;83.28
10988;BME280;5547;42.672;23.230;2023-02-14T15:07:53;94420.19;;;0.52;83.42
10988;BME280;5547;42.672;23.230;2023-02-14T15:11:06;94414.97;;;0.52;82.98
10988;BME280;5547;42.672;23.230;2023-02-14T15:14:21;94417.28;;;0.45;83.82
10988;BME280;5547;42.672;23.230;2023-02-14T15:17:27;94418.22;;;0.40;82.97
10988;BME280;5547;42.672;23.230;2023-02-14T15:20:29;94424.81;;;0.46;83.17
10988;BME280;5547;42.672;23.230;2023-02-14T15:23:30;94358.16;;;-0.12;83.30
10988;BME280;5547;42.672;23.230;2023-02-14T15:26:33;94414.41;;;0.37;83.82
10988;BME280;5547;42.672;23.230;2023-02-14T15:29:34;94217.31;;;-1.22;83.22
10988;BME280;5547;42.672;23.230;2023-02-14T15:32:36;94411.63;;;0.25;83.75
10988;BME280;5547;42.672;23.230;2023-02-14T15:35:39;94416.09;;;0.16;83.98
10988;BME280;5547;42.672;23.230;2023-02-14T15:38:43;94430.09;;;0.29;83.62
10988;BME280;5547;42.672;23.230;2023-02-14T15:41:45;94421.69;;;0.14;84.17
10988;BME280;5547;42.672;23.230;2023-02-14T15:44:45;94404.28;;;0.10;83.90
10988;BME280;5547;42.672;23.230;2023-02-14T15:47:48;94347.56;;;-0.33;84.34
10988;BME280;5547;42.672;23.230;2023-02-14T15:50:51;94347.56;;;-0.42;84.08
10988;BME280;5547;42.672;23.230;2023-02-14T15:53:58;94429.66;;;0.18;84.12
10988;BME280;5547;42.672;23.230;2023-02-14T15:57:01;94431.81;;;0.16;83.57
10988;BME280;5547;42.672;23.230;2023-02-14T16:00:04;94383.25;;;-0.11;83.59
10988;BME280;5547;42.672;23.230;2023-02-14T16:03:11;94428.72;;;0.14;84.16
10988;BME280;5547;42.672;23.230;2023-02-14T16:06:37;94434.88;;;0.18;83.57
10988;BME280;5547;42.672;23.230;2023-02-14T16:09:38;94434.44;;;0.16;83.49
10988;BME280;5547;42.672;23.230;2023-02-14T16:12:39;94432.75;;;0.11;83.93
10988;BME280;5547;42.672;23.230;2023-02-14T16:15:59;94436.75;;;0.09;84.40
10988;BME280;5547;42.672;23.230;2023-02-14T16:19:00;94425.97;;;0.10;84.94
10988;BME280;5547;42.672;23.230;2023-02-14T16:22:04;94431.34;;;0.14;83.96
10988;BME280;5547;42.672;23.230;2023-02-14T16:25:07;94437.66;;;0.04;84.47
10988;BME280;5547;42.672;23.230;2023-02-14T16:28:07;94423.22;;;-0.02;84.04
10988;BME280;5547;42.672;23.230;2023-02-14T16:31:13;94433.69;;;-0.02;84.59
10988;BME280;5547;42.672;23.230;2023-02-14T16:34:16;94447.84;;;0.06;84.52
10988;BME280;5547;42.672;23.230;2023-02-14T16:37:22;94419.56;;;-0.18;84.57
10988;BME280;5547;42.672;23.230;2023-02-14T16:40:25;94433.81;;;-0.07;84.39
10988;BME280;5547;42.672;23.230;2023-02-14T16:43:26;94416.47;;;-0.20;85.37
10988;BME280;5547;42.672;23.230;2023-02-14T16:46:29;94454.00;;;0.01;84.90
10988;BME280;5547;42.672;23.230;2023-02-14T16:49:30;94398.63;;;-0.36;84.78
10988;BME280;5547;42.672;23.230;2023-02-14T16:52:30;94457.53;;;0.05;84.99
10988;BME280;5547;42.672;23.230;2023-02-14T16:55:31;94438.16;;;-0.20;84.92
10988;BME280;5547;42.672;23.230;2023-02-14T16:58:33;94471.38;;;0.06;84.54
10988;BME280;5547;42.672;23.230;2023-02-14T17:01:35;94424.78;;;-0.18;84.39
10988;BME280;5547;42.672;23.230;2023-02-14T17:04:36;94463.38;;;0.02;85.83
10988;BME280;5547;42.672;23.230;2023-02-14T17:07:36;94468.16;;;0.00;85.75
10988;BME280;5547;42.672;23.230;2023-02-14T17:10:40;94470.16;;;0.03;85.65
10988;BME280;5547;42.672;23.230;2023-02-14T17:13:42;94453.06;;;-0.03;84.65
10988;BME280;5547;42.672;23.230;2023-02-14T17:16:44;94480.28;;;0.05;85.99
10988;BME280;5547;42.672;23.230;2023-02-14T17:19:45;94478.13;;;0.07;84.97
10988;BME280;5547;42.672;23.230;2023-02-14T17:22:45;94482.47;;;0.03;84.60
10988;BME280;5547;42.672;23.230;2023-02-14T17:25:45;94467.38;;;-0.09;84.96
10988;BME280;5547;42.672;23.230;2023-02-14T17:28:46;94489.53;;;0.11;84.08
10988;BME280;5547;42.672;23.230;2023-02-14T17:31:47;94380.47;;;-0.67;85.08
10988;BME280;5547;42.672;23.230;2023-02-14T17:34:47;94481.06;;;0.05;85.32
10988;BME280;5547;42.672;23.230;2023-02-14T17:37:48;94472.16;;;0.15;83.91
10988;BME280;5547;42.672;23.230;2023-02-14T17:40:48;94494.13;;;0.14;83.92
10988;BME280;5547;42.672;23.230;2023-02-14T17:43:50;94488.28;;;0.08;84.11
10988;BME280;5547;42.672;23.230;2023-02-14T17:46:52;94488.59;;;0.07;84.20
10988;BME280;5547;42.672;23.230;2023-02-14T17:49:53;94463.09;;;-0.14;84.79
10988;BME280;5547;42.672;23.230;2023-02-14T17:52:55;94374.03;;;-0.78;84.95
10988;BME280;5547;42.672;23.230;2023-02-14T17:55:55;94467.22;;;-0.04;84.12
10988;BME280;5547;42.672;23.230;2023-02-14T17:58:57;94490.91;;;0.08;84.10
10988;BME280;5547;42.672;23.230;2023-02-14T18:01:59;94475.53;;;-0.11;84.40
10988;BME280;5547;42.672;23.230;2023-02-14T18:04:59;94474.44;;;-0.10;84.29
10988;BME280;5547;42.672;23.230;2023-02-14T18:07:59;94491.53;;;-0.04;84.87
10988;BME280;5547;42.672;23.230;2023-02-14T18:11:06;94495.53;;;0.03;84.77
10988;BME280;5547;42.672;23.230;2023-02-14T18:14:07;94496.78;;;0.05;84.30
10988;BME280;5547;42.672;23.230;2023-02-14T18:17:08;94499.53;;;0.17;83.37
10988;BME280;5547;42.672;23.230;2023-02-14T18:20:10;94447.84;;;-0.20;84.66
10988;BME280;5547;42.672;23.230;2023-02-14T18:23:11;94501.22;;;0.05;84.21
10988;BME280;5547;42.672;23.230;2023-02-14T18:26:14;94462.75;;;-0.21;84.43
10988;BME280;5547;42.672;23.230;2023-02-14T18:29:15;94509.53;;;0.07;84.12